createdAt,value
2019-02-27T00:00:12.905Z,8.30
2019-02-27T00:02:41.424Z,8.30
2019-02-27T00:05:10.071Z,8.30
2019-02-27T00:07:38.929Z,8.30
2019-02-27T00:10:08.206Z,8.50
2019-02-27T00:12:36.724Z,8.70
2019-02-27T00:15:06.747Z,8.80
2019-02-27T00:17:35.273Z,8.90
2019-02-27T00:20:05.310Z,9.20
2019-02-27T00:22:34.417Z,9.20
2019-02-27T00:25:03.435Z,9.30
2019-02-27T00:27:32.469Z,9.30
2019-02-27T00:30:04.394Z,9.30
2019-02-27T00:32:31.432Z,9.30
2019-02-27T00:34:59.854Z,9.30
2019-02-27T00:37:28.430Z,9.30
2019-02-27T00:39:56.859Z,9.30
2019-02-27T00:42:33.272Z,9.20
2019-02-27T00:44:55.539Z,9.30
2019-02-27T00:47:24.218Z,9.30
2019-02-27T00:49:52.621Z,9.30
2019-02-27T00:52:21.079Z,9.30
2019-02-27T00:54:49.924Z,9.30
2019-02-27T00:57:20.837Z,9.30
2019-02-27T00:59:48.585Z,9.30
2019-02-27T01:02:19.994Z,9.20
2019-02-27T01:04:47.868Z,9.20
2019-02-27T01:07:20.203Z,9.10
2019-02-27T01:09:47.315Z,9.10
2019-02-27T01:12:16.248Z,9.10
2019-02-27T01:14:44.691Z,9.00
2019-02-27T01:17:13.137Z,9.00
2019-02-27T01:19:42.950Z,8.90
2019-02-27T01:22:11.925Z,8.90
2019-02-27T01:24:40.474Z,8.80
2019-02-27T01:27:09.415Z,8.90
2019-02-27T01:29:37.868Z,8.90
2019-02-27T01:32:06.452Z,8.80
2019-02-27T01:34:37.114Z,8.80
2019-02-27T01:37:05.637Z,8.70
2019-02-27T01:39:34.076Z,8.70
2019-02-27T01:42:03.650Z,8.60
2019-02-27T01:44:32.155Z,8.60
2019-02-27T01:47:02.368Z,8.60
2019-02-27T01:49:33.706Z,8.40
2019-02-27T01:52:02.241Z,8.30
2019-02-27T01:54:30.698Z,8.20
2019-02-27T01:57:02.842Z,8.10
2019-02-27T01:59:30.484Z,8.00
2019-02-27T02:02:01.140Z,7.90
2019-02-27T02:04:30.315Z,7.80
2019-02-27T02:06:59.089Z,7.80
2019-02-27T02:09:33.863Z,7.70
2019-02-27T02:12:08.734Z,7.60
2019-02-27T02:14:54.310Z,7.60
2019-02-27T02:17:32.251Z,7.50
2019-02-27T02:20:21.127Z,7.60
2019-02-27T02:23:11.775Z,7.60
2019-02-27T02:25:45.571Z,7.50
2019-02-27T02:28:48.048Z,7.60
2019-02-27T02:31:19.179Z,7.40
2019-02-27T02:34:22.512Z,7.30
2019-02-27T02:37:06.007Z,7.30
2019-02-27T02:39:37.568Z,7.20
2019-02-27T02:42:36.742Z,7.20
2019-02-27T02:45:11.008Z,7.20
2019-02-27T02:47:55.403Z,7.00
2019-02-27T02:50:37.686Z,6.80
2019-02-27T02:53:12.928Z,6.80
2019-02-27T02:55:50.487Z,6.70
2019-02-27T02:58:27.619Z,6.70
2019-02-27T03:01:14.035Z,6.70
2019-02-27T03:03:50.427Z,6.80
2019-02-27T03:06:51.061Z,6.80
2019-02-27T03:09:37.220Z,6.80
2019-02-27T03:12:14.619Z,6.70
2019-02-27T03:15:05.979Z,6.70
2019-02-27T03:17:46.236Z,6.60
2019-02-27T03:20:35.708Z,6.60
2019-02-27T03:23:17.687Z,6.60
2019-02-27T03:25:52.318Z,6.60
2019-02-27T03:28:55.772Z,6.60
2019-02-27T03:31:36.107Z,6.60
2019-02-27T03:34:16.526Z,6.60
2019-02-27T03:37:03.198Z,6.70
2019-02-27T03:39:58.460Z,6.70
2019-02-27T03:42:52.120Z,6.70
2019-02-27T03:45:31.028Z,6.60
2019-02-27T03:48:14.630Z,6.50
2019-02-27T03:51:01.066Z,6.50
2019-02-27T03:53:43.363Z,6.50
2019-02-27T03:56:29.717Z,6.60
2019-02-27T03:59:16.543Z,6.60
2019-02-27T04:02:06.296Z,6.60
2019-02-27T04:05:08.802Z,6.60
2019-02-27T04:07:56.554Z,6.60
2019-02-27T04:10:31.435Z,6.60
2019-02-27T04:12:58.310Z,6.50
2019-02-27T04:15:26.739Z,6.40
2019-02-27T04:17:55.617Z,6.30
2019-02-27T04:20:25.119Z,6.20
2019-02-27T04:22:53.976Z,6.20
2019-02-27T04:25:22.468Z,6.20
2019-02-27T04:28:05.572Z,6.20
2019-02-27T04:30:33.770Z,6.10
2019-02-27T04:33:02.309Z,6.20
2019-02-27T04:35:30.937Z,6.20
2019-02-27T04:37:59.559Z,6.20
2019-02-27T04:40:27.995Z,6.10
2019-02-27T04:42:59.160Z,6.10
2019-02-27T04:45:27.285Z,6.10
2019-02-27T04:47:55.748Z,6.10
2019-02-27T04:50:24.674Z,6.00
2019-02-27T04:52:53.134Z,6.00
2019-02-27T04:55:21.582Z,6.00
2019-02-27T04:57:50.182Z,6.00
2019-02-27T05:00:18.639Z,6.00
2019-02-27T05:02:47.063Z,5.90
2019-02-27T05:05:15.800Z,5.90
2019-02-27T05:07:44.250Z,5.90
2019-02-27T05:10:12.721Z,5.90
2019-02-27T05:12:41.351Z,5.90
2019-02-27T05:15:09.991Z,5.90
2019-02-27T05:17:38.435Z,5.90
2019-02-27T05:20:11.641Z,5.80
2019-02-27T05:22:38.142Z,5.80
2019-02-27T05:25:06.763Z,5.80
2019-02-27T05:27:35.515Z,5.80
2019-02-27T05:30:05.483Z,5.90
2019-02-27T05:32:34.001Z,5.80
2019-02-27T05:35:02.663Z,5.80
2019-02-27T05:37:31.098Z,5.80
2019-02-27T05:40:02.389Z,5.80
2019-02-27T05:42:30.793Z,5.80
2019-02-27T05:44:59.814Z,5.80
2019-02-27T05:47:28.423Z,5.80
2019-02-27T05:49:57.940Z,5.80
2019-02-27T05:52:27.298Z,5.80
2019-02-27T05:54:55.752Z,5.70
2019-02-27T05:57:24.265Z,5.70
2019-02-27T05:59:52.713Z,5.80
2019-02-27T06:02:21.335Z,5.80
2019-02-27T06:04:49.776Z,5.80
2019-02-27T06:07:19.076Z,5.80
2019-02-27T06:09:54.495Z,5.90
2019-02-27T06:12:22.977Z,5.90
2019-02-27T06:14:54.783Z,5.90
2019-02-27T06:17:21.792Z,5.90
2019-02-27T06:19:50.349Z,5.90
2019-02-27T06:22:18.748Z,5.90
2019-02-27T06:24:47.482Z,5.90
2019-02-27T06:27:15.933Z,5.90
2019-02-27T06:29:44.343Z,5.90
2019-02-27T06:32:13.218Z,5.90
2019-02-27T06:34:41.669Z,5.90
2019-02-27T06:37:10.086Z,6.00
2019-02-27T06:39:38.929Z,5.90
2019-02-27T06:42:07.600Z,5.90
2019-02-27T06:44:36.629Z,5.90
2019-02-27T06:47:07.219Z,5.90
2019-02-27T06:49:36.029Z,6.00
2019-02-27T06:52:09.033Z,5.90
2019-02-27T06:54:34.961Z,5.90
2019-02-27T06:57:07.531Z,5.90
2019-02-27T06:59:33.719Z,6.00
2019-02-27T07:02:03.214Z,6.10
2019-02-27T07:04:31.741Z,6.20
2019-02-27T07:07:00.636Z,6.40
2019-02-27T07:09:32.847Z,6.70
2019-02-27T07:12:00.511Z,7.00
2019-02-27T07:14:29.001Z,7.20
2019-02-27T07:16:57.897Z,7.40
2019-02-27T07:19:26.447Z,7.70
2019-02-27T07:21:54.964Z,7.90
2019-02-27T07:24:23.619Z,8.10
2019-02-27T07:26:52.071Z,8.10
2019-02-27T07:29:22.064Z,8.40
2019-02-27T07:31:52.066Z,8.80
2019-02-27T07:34:21.992Z,9.10
2019-02-27T07:36:50.435Z,9.20
2019-02-27T07:39:19.251Z,9.20
2019-02-27T07:41:48.110Z,9.50
2019-02-27T07:44:16.559Z,9.80
2019-02-27T07:46:45.348Z,10.40
2019-02-27T07:49:13.796Z,10.50
2019-02-27T07:51:43.065Z,10.80
2019-02-27T07:54:12.280Z,11.10
2019-02-27T07:56:41.501Z,10.60
2019-02-27T07:59:11.572Z,10.50
2019-02-27T08:01:43.658Z,10.90
2019-02-27T08:04:11.538Z,11.20
2019-02-27T08:06:41.495Z,11.70
2019-02-27T08:09:11.342Z,11.90
2019-02-27T08:11:40.454Z,12.60
2019-02-27T08:14:10.049Z,13.50
2019-02-27T08:16:38.766Z,14.10
2019-02-27T08:19:08.846Z,14.60
2019-02-27T08:21:38.037Z,14.90
2019-02-27T08:24:07.602Z,14.00
2019-02-27T08:26:37.059Z,13.50
2019-02-27T08:29:06.480Z,13.40
2019-02-27T08:31:35.793Z,12.70
2019-02-27T08:34:05.129Z,12.50
2019-02-27T08:36:34.027Z,12.90
2019-02-27T08:39:03.820Z,12.80
2019-02-27T08:41:32.700Z,13.20
2019-02-27T08:44:03.251Z,13.60
2019-02-27T08:49:11.097Z,13.80
2019-02-27T08:51:42.652Z,14.20
2019-02-27T08:54:10.002Z,14.60
2019-02-27T08:56:38.494Z,14.90
2019-02-27T08:59:07.874Z,15.00
2019-02-27T09:01:37.916Z,14.50
2019-02-27T09:04:11.544Z,14.50
2019-02-27T09:06:37.695Z,14.40
2019-02-27T09:09:07.960Z,14.30
2019-02-27T09:11:37.224Z,14.40
2019-02-27T09:14:07.482Z,14.30
2019-02-27T09:16:36.434Z,14.10
2019-02-27T09:19:09.243Z,14.10
2019-02-27T09:21:35.708Z,14.70
2019-02-27T09:24:04.591Z,14.20
2019-02-27T09:26:36.007Z,13.90
2019-02-27T09:29:03.541Z,14.40
2019-02-27T09:31:34.741Z,14.60
2019-02-27T09:34:02.487Z,14.30
2019-02-27T09:36:30.912Z,14.00
2019-02-27T09:38:59.318Z,14.00
2019-02-27T09:41:31.233Z,14.30
2019-02-27T09:44:01.295Z,14.90
2019-02-27T09:46:30.748Z,15.40
2019-02-27T09:48:59.531Z,15.70
2019-02-27T09:51:28.089Z,15.40
2019-02-27T09:53:57.986Z,15.40
2019-02-27T09:56:29.118Z,15.90
2019-02-27T09:58:56.750Z,16.10
2019-02-27T10:01:25.440Z,16.00
2019-02-27T10:03:55.243Z,17.00
2019-02-27T10:06:25.643Z,18.20
2019-02-27T10:08:56.485Z,18.90
2019-02-27T10:11:24.436Z,19.10
2019-02-27T10:13:52.970Z,19.30
2019-02-27T10:16:21.635Z,19.00
2019-02-27T10:18:54.830Z,18.10
2019-02-27T10:21:20.492Z,18.50
2019-02-27T10:23:48.987Z,18.90
2019-02-27T10:26:19.441Z,17.90
2019-02-27T10:28:47.722Z,17.90
2019-02-27T10:31:16.134Z,18.20
2019-02-27T10:33:44.798Z,18.40
2019-02-27T10:36:13.277Z,18.90
2019-02-27T10:38:41.742Z,19.20
2019-02-27T10:41:10.716Z,20.10
2019-02-27T10:43:39.146Z,20.20
2019-02-27T10:46:07.800Z,19.80
2019-02-27T10:48:36.917Z,19.90
2019-02-27T10:51:05.578Z,20.40
2019-02-27T10:53:34.014Z,20.70
2019-02-27T10:56:02.771Z,21.30
2019-02-27T10:58:31.316Z,22.10
2019-02-27T11:01:01.198Z,22.90
2019-02-27T11:03:30.228Z,23.10
2019-02-27T11:05:58.826Z,23.20
2019-02-27T11:08:29.608Z,22.30
2019-02-27T11:10:57.622Z,22.60
2019-02-27T11:13:26.059Z,22.70
2019-02-27T11:15:54.551Z,23.40
2019-02-27T11:18:23.138Z,23.40
2019-02-27T11:20:51.596Z,23.60
2019-02-27T11:23:22.155Z,22.90
2019-02-27T11:25:50.745Z,23.20
2019-02-27T11:28:19.259Z,23.60
2019-02-27T11:30:47.757Z,24.40
2019-02-27T11:33:25.518Z,24.80
2019-02-27T11:35:46.762Z,24.20
2019-02-27T11:38:15.611Z,24.50
2019-02-27T11:40:44.753Z,25.10
2019-02-27T11:43:13.702Z,24.40
2019-02-27T11:45:42.160Z,24.90
2019-02-27T11:48:12.324Z,24.10
2019-02-27T11:50:40.811Z,24.10
2019-02-27T11:53:09.314Z,25.50
2019-02-27T11:55:37.875Z,25.20
2019-02-27T11:58:06.298Z,26.30
2019-02-27T12:00:34.881Z,27.40
2019-02-27T12:03:03.721Z,28.20
2019-02-27T12:05:34.278Z,28.10
2019-02-27T12:08:02.435Z,27.90
2019-02-27T12:10:32.483Z,28.90
2019-02-27T12:13:01.486Z,28.70
2019-02-27T12:15:30.672Z,28.70
2019-02-27T12:18:00.566Z,29.10
2019-02-27T12:20:29.832Z,29.60
2019-02-27T12:22:58.341Z,28.50
2019-02-27T12:25:29.719Z,27.80
2019-02-27T12:27:57.861Z,28.40
2019-02-27T12:30:32.234Z,28.00
2019-02-27T12:33:00.959Z,28.20
2019-02-27T12:35:36.576Z,28.70
2019-02-27T12:38:08.181Z,29.40
2019-02-27T12:40:36.292Z,30.00
2019-02-27T12:43:04.958Z,30.50
2019-02-27T12:45:33.853Z,30.40
2019-02-27T12:48:02.313Z,29.90
2019-02-27T12:50:31.622Z,28.40
2019-02-27T12:53:00.390Z,27.50
2019-02-27T12:55:29.092Z,28.50
2019-02-27T12:57:57.538Z,29.00
2019-02-27T13:00:33.815Z,28.90
2019-02-27T13:03:02.274Z,29.10
2019-02-27T13:05:30.871Z,29.70
2019-02-27T13:07:59.692Z,29.70
2019-02-27T13:10:33.038Z,29.40
2019-02-27T13:12:58.925Z,29.30
2019-02-27T13:15:28.717Z,29.70
2019-02-27T13:17:58.049Z,29.50
2019-02-27T13:20:28.238Z,28.50
2019-02-27T13:22:57.229Z,28.80
2019-02-27T13:25:26.002Z,29.40
2019-02-27T13:27:56.273Z,29.50
2019-02-27T13:30:26.154Z,30.10
2019-02-27T13:32:54.574Z,29.40
2019-02-27T13:35:24.014Z,28.30
2019-02-27T13:37:53.163Z,28.70
2019-02-27T13:40:23.382Z,27.90
2019-02-27T13:42:53.412Z,27.30
2019-02-27T13:45:25.397Z,27.70
2019-02-27T13:47:53.824Z,28.10
2019-02-27T13:50:25.668Z,27.90
2019-02-27T13:52:52.707Z,28.30
2019-02-27T13:55:23.362Z,28.00
2019-02-27T13:57:52.572Z,27.50
2019-02-27T14:00:44.217Z,27.40
2019-02-27T14:03:13.331Z,27.10
2019-02-27T14:05:42.324Z,26.30
2019-02-27T14:08:10.985Z,26.30
2019-02-27T14:10:40.154Z,26.50
2019-02-27T14:13:09.857Z,26.40
2019-02-27T14:15:39.066Z,26.70
2019-02-27T14:18:15.937Z,26.60
2019-02-27T14:20:43.539Z,26.80
2019-02-27T14:23:14.525Z,26.80
2019-02-27T14:25:42.550Z,26.50
2019-02-27T14:28:11.084Z,26.60
2019-02-27T14:30:48.137Z,26.70
2019-02-27T14:33:19.379Z,26.50
2019-02-27T14:35:46.727Z,26.40
2019-02-27T14:38:15.329Z,26.50
2019-02-27T14:40:43.737Z,26.90
2019-02-27T14:43:13.431Z,26.90
2019-02-27T14:45:42.146Z,27.20
2019-02-27T14:48:11.298Z,26.50
2019-02-27T14:50:40.075Z,26.20
2019-02-27T14:53:10.495Z,25.70
2019-02-27T14:55:38.984Z,25.50
2019-02-27T14:58:07.488Z,25.00
2019-02-27T15:00:40.861Z,24.30
2019-02-27T15:03:08.058Z,23.50
2019-02-27T15:05:37.135Z,23.00
2019-02-27T15:08:07.361Z,22.50
2019-02-27T15:10:40.252Z,22.20
2019-02-27T15:13:06.018Z,21.90
2019-02-27T15:15:35.204Z,21.60
2019-02-27T15:18:03.851Z,21.40
2019-02-27T15:20:32.357Z,21.40
2019-02-27T15:23:01.455Z,21.20
2019-02-27T15:25:29.909Z,21.10
2019-02-27T15:27:59.646Z,21.00
2019-02-27T15:30:31.302Z,21.00
2019-02-27T15:33:03.906Z,20.90
2019-02-27T15:35:30.136Z,20.90
2019-02-27T15:38:00.135Z,20.90
2019-02-27T15:40:30.278Z,20.90
2019-02-27T15:42:59.159Z,20.80
2019-02-27T15:45:29.397Z,20.80
2019-02-27T15:47:57.905Z,20.70
2019-02-27T15:50:31.734Z,20.60
2019-02-27T15:53:00.374Z,20.50
2019-02-27T15:55:33.029Z,20.50
2019-02-27T15:57:59.383Z,20.40
2019-02-27T16:00:28.830Z,20.40
2019-02-27T16:02:57.383Z,20.30
2019-02-27T16:05:30.171Z,20.20
2019-02-27T16:07:56.471Z,20.10
2019-02-27T16:10:26.252Z,20.00
2019-02-27T16:12:59.839Z,19.90
2019-02-27T16:15:25.484Z,19.80
2019-02-27T16:17:54.031Z,19.70
2019-02-27T16:20:29.037Z,19.70
2019-02-27T16:22:57.907Z,19.60
2019-02-27T16:25:27.613Z,19.40
2019-02-27T16:27:56.055Z,19.50
2019-02-27T16:30:31.336Z,19.40
2019-02-27T16:32:57.360Z,19.30
2019-02-27T16:35:25.989Z,19.20
2019-02-27T16:37:57.502Z,19.10
2019-02-27T16:40:29.472Z,19.10
2019-02-27T16:42:57.962Z,19.00
2019-02-27T16:45:33.986Z,18.90
2019-02-27T16:48:02.830Z,18.80
2019-02-27T16:50:31.332Z,18.70
2019-02-27T16:52:59.954Z,18.60
2019-02-27T16:55:29.270Z,18.50
2019-02-27T16:57:57.934Z,18.40
2019-02-27T17:00:32.023Z,18.20
2019-02-27T17:03:00.472Z,18.10
2019-02-27T17:05:28.962Z,18.10
2019-02-27T17:08:02.236Z,18.00
2019-02-27T17:10:36.563Z,17.80
2019-02-27T17:13:05.862Z,17.70
2019-02-27T17:15:35.861Z,17.60
2019-02-27T17:18:05.092Z,17.50
2019-02-27T17:20:33.961Z,17.40
2019-02-27T17:23:07.622Z,17.30
2019-02-27T17:25:32.566Z,17.10
2019-02-27T17:28:01.342Z,17.00
2019-02-27T17:30:36.726Z,16.90
2019-02-27T17:33:05.988Z,16.70
2019-02-27T17:35:34.438Z,16.60
2019-02-27T17:38:03.232Z,16.40
2019-02-27T17:40:36.606Z,16.30
2019-02-27T17:43:02.508Z,16.20
2019-02-27T17:45:30.970Z,16.00
2019-02-27T17:47:59.763Z,15.90
2019-02-27T17:50:31.368Z,15.70
2019-02-27T17:52:58.437Z,15.60
2019-02-27T17:55:27.651Z,15.60
2019-02-27T17:57:58.378Z,15.50
2019-02-27T18:00:38.957Z,15.40
2019-02-27T18:03:07.619Z,15.20
2019-02-27T18:05:36.279Z,15.20
2019-02-27T18:08:04.971Z,15.00
2019-02-27T18:10:37.232Z,14.90
2019-02-27T18:13:03.827Z,14.80
2019-02-27T18:15:32.575Z,14.70
2019-02-27T18:18:01.072Z,14.60
2019-02-27T18:20:31.712Z,14.50
2019-02-27T18:22:59.845Z,14.40
2019-02-27T18:25:28.279Z,14.30
2019-02-27T18:27:59.633Z,14.20
2019-02-27T18:30:27.229Z,14.10
2019-02-27T18:32:55.745Z,14.00
2019-02-27T18:35:28.794Z,13.90
2019-02-27T18:37:54.665Z,13.90
2019-02-27T18:40:23.204Z,13.90
2019-02-27T18:42:55.154Z,13.80
2019-02-27T18:45:27.488Z,13.80
2019-02-27T18:47:55.897Z,13.80
2019-02-27T18:50:25.609Z,13.80
2019-02-27T18:52:54.672Z,13.60
2019-02-27T18:55:23.132Z,13.50
2019-02-27T18:57:51.773Z,13.40
2019-02-27T19:00:25.554Z,13.40
2019-02-27T19:02:57.278Z,13.30
2019-02-27T19:05:26.436Z,13.20
2019-02-27T19:07:55.266Z,13.10
2019-02-27T19:10:24.150Z,13.00
2019-02-27T19:12:52.965Z,12.90
2019-02-27T19:15:26.149Z,12.90
2019-02-27T19:17:55.090Z,12.90
2019-02-27T19:20:26.866Z,12.90
2019-02-27T19:22:55.430Z,12.90
2019-02-27T19:25:24.355Z,12.90
2019-02-27T19:27:52.841Z,12.80
2019-02-27T19:30:21.570Z,12.70
2019-02-27T19:32:50.294Z,12.60
2019-02-27T19:35:21.682Z,12.50
2019-02-27T19:37:49.156Z,12.50
2019-02-27T19:40:30.367Z,12.40
2019-02-27T19:43:01.618Z,12.30
2019-02-27T19:45:30.575Z,12.20
2019-02-27T19:47:59.147Z,12.20
2019-02-27T19:50:28.312Z,12.10
2019-02-27T19:52:56.935Z,12.10
2019-02-27T19:55:27.295Z,12.00
2019-02-27T19:57:55.775Z,11.90
2019-02-27T20:00:34.879Z,11.90
2019-02-27T20:03:03.483Z,11.90
2019-02-27T20:05:32.058Z,11.80
2019-02-27T20:08:02.494Z,11.70
2019-02-27T20:10:33.276Z,11.70
2019-02-27T20:13:01.655Z,11.60
2019-02-27T20:15:30.531Z,11.50
2019-02-27T20:17:59.153Z,11.50
2019-02-27T20:20:29.949Z,11.40
2019-02-27T20:22:58.598Z,11.40
2019-02-27T20:25:29.931Z,11.40
2019-02-27T20:27:58.888Z,11.40
2019-02-27T20:30:27.984Z,11.20
2019-02-27T20:32:59.816Z,11.10
2019-02-27T20:35:27.206Z,11.10
2019-02-27T20:37:55.988Z,11.10
2019-02-27T20:40:24.487Z,11.00
2019-02-27T20:42:55.004Z,10.90
2019-02-27T20:45:26.898Z,10.90
2019-02-27T20:48:00.554Z,10.90
2019-02-27T20:50:34.788Z,10.80
2019-02-27T20:53:02.124Z,10.70
2019-02-27T20:55:31.851Z,10.70
2019-02-27T20:58:01.002Z,10.70
2019-02-27T21:00:29.550Z,10.60
2019-02-27T21:03:00.565Z,10.60
2019-02-27T21:05:29.330Z,10.50
2019-02-27T21:08:02.028Z,10.50
2019-02-27T21:10:33.052Z,10.40
2019-02-27T21:13:01.662Z,10.50
2019-02-27T21:15:32.352Z,10.60
2019-02-27T21:18:00.753Z,10.50
2019-02-27T21:20:29.380Z,10.30
2019-02-27T21:22:59.810Z,10.20
2019-02-27T21:25:28.438Z,10.20
2019-02-27T21:27:57.005Z,10.20
2019-02-27T21:30:26.027Z,10.10
2019-02-27T21:32:54.576Z,10.10
2019-02-27T21:35:23.071Z,10.00
2019-02-27T21:37:51.692Z,10.00
2019-02-27T21:40:20.858Z,10.00
2019-02-27T21:42:50.835Z,10.00
2019-02-27T21:45:21.063Z,10.00
2019-02-27T21:47:51.775Z,10.10
2019-02-27T21:50:22.175Z,10.20
2019-02-27T21:52:54.331Z,10.30
2019-02-27T21:55:21.232Z,10.30
2019-02-27T21:57:49.668Z,10.50
2019-02-27T22:00:25.689Z,10.60
2019-02-27T22:02:56.566Z,10.70
2019-02-27T22:05:25.251Z,10.80
2019-02-27T22:07:54.022Z,10.90
2019-02-27T22:10:24.266Z,11.00
2019-02-27T22:12:52.809Z,11.00
2019-02-27T22:15:27.918Z,11.00
2019-02-27T22:17:56.494Z,11.10
2019-02-27T22:20:26.767Z,11.10
2019-02-27T22:22:55.588Z,11.10
2019-02-27T22:25:24.190Z,11.10
2019-02-27T22:27:52.745Z,11.20
2019-02-27T22:30:24.616Z,11.10
2019-02-27T22:32:53.112Z,11.10
2019-02-27T22:35:21.893Z,11.00
2019-02-27T22:37:52.385Z,11.00
2019-02-27T22:40:22.694Z,10.90
2019-02-27T22:42:51.436Z,10.90
2019-02-27T22:45:20.895Z,10.90
2019-02-27T22:47:50.225Z,10.90
2019-02-27T22:50:19.964Z,10.80
2019-02-27T22:52:54.188Z,10.80
2019-02-27T22:55:18.809Z,10.60
2019-02-27T22:57:47.379Z,10.40
2019-02-27T23:00:56.830Z,10.20
2019-02-27T23:03:31.287Z,10.10
2019-02-27T23:05:59.882Z,9.70
2019-02-27T23:08:28.304Z,9.50
2019-02-27T23:10:57.651Z,9.40
2019-02-27T23:13:27.710Z,9.20
2019-02-27T23:15:58.825Z,9.10
2019-02-27T23:18:26.902Z,9.00
2019-02-27T23:20:56.125Z,9.00
2019-02-27T23:23:25.041Z,9.00
2019-02-27T23:25:53.655Z,9.10
2019-02-27T23:28:22.147Z,9.20
2019-02-27T23:30:50.579Z,9.20
2019-02-27T23:33:19.441Z,9.10
2019-02-27T23:35:50.180Z,8.90
2019-02-27T23:38:18.138Z,8.70
2019-02-27T23:40:48.989Z,8.60
2019-02-27T23:43:16.986Z,8.50
2019-02-27T23:45:45.441Z,8.50
2019-02-27T23:48:13.877Z,8.40
2019-02-27T23:50:43.248Z,8.40
2019-02-27T23:53:11.955Z,8.40
2019-02-27T23:55:44.349Z,8.40
2019-02-27T23:58:10.734Z,8.40
